sensor_id;sensor_type;location;lat;lon;timestamp;P1;durP1;ratioP1;P2;durP2;ratioP2
65879;SDS011;52661;51.364;6.054;2023-04-08T00:01:33;14.97;;;5.63;;
65879;SDS011;52661;51.364;6.054;2023-04-08T00:03:58;14.37;;;5.53;;
65879;SDS011;52661;51.364;6.054;2023-04-08T00:06:24;16.20;;;6.07;;
65879;SDS011;52661;51.364;6.054;2023-04-08T00:08:52;23.85;;;7.22;;
65879;SDS011;52661;51.364;6.054;2023-04-08T00:11:17;15.43;;;5.57;;
65879;SDS011;52661;51.364;6.054;2023-04-08T00:13:43;15.83;;;6.03;;
65879;SDS011;52661;51.364;6.054;2023-04-08T00:16:08;15.40;;;5.67;;
65879;SDS011;52661;51.364;6.054;2023-04-08T00:18:33;15.67;;;5.80;;
65879;SDS011;52661;51.364;6.054;2023-04-08T00:20:59;13.55;;;6.25;;
65879;SDS011;52661;51.364;6.054;2023-04-08T00:23:24;18.60;;;6.50;;
65879;SDS011;52661;51.364;6.054;2023-04-08T00:25:49;21.67;;;6.50;;
65879;SDS011;52661;51.364;6.054;2023-04-08T00:28:15;15.23;;;6.40;;
65879;SDS011;52661;51.364;6.054;2023-04-08T00:30:40;16.50;;;6.20;;
65879;SDS011;52661;51.364;6.054;2023-04-08T00:33:05;19.07;;;6.87;;
65879;SDS011;52661;51.364;6.054;2023-04-08T00:35:32;17.65;;;6.68;;
65879;SDS011;52661;51.364;6.054;2023-04-08T00:37:58;17.23;;;6.70;;
65879;SDS011;52661;51.364;6.054;2023-04-08T00:40:23;19.07;;;7.33;;
65879;SDS011;52661;51.364;6.054;2023-04-08T00:42:48;19.53;;;7.70;;
65879;SDS011;52661;51.364;6.054;2023-04-08T00:45:14;26.08;;;7.65;;
65879;SDS011;52661;51.364;6.054;2023-04-08T00:47:39;18.70;;;7.57;;
65879;SDS011;52661;51.364;6.054;2023-04-08T00:50:06;23.95;;;7.47;;
65879;SDS011;52661;51.364;6.054;2023-04-08T00:52:33;21.02;;;7.60;;
65879;SDS011;52661;51.364;6.054;2023-04-08T00:54:58;24.07;;;7.20;;
65879;SDS011;52661;51.364;6.054;2023-04-08T00:57:23;16.67;;;7.33;;
65879;SDS011;52661;51.364;6.054;2023-04-08T00:59:48;16.10;;;7.28;;
65879;SDS011;52661;51.364;6.054;2023-04-08T01:07:26;19.38;;;6.72;;
65879;SDS011;52661;51.364;6.054;2023-04-08T01:10:39;20.17;;;8.73;;
65879;SDS011;52661;51.364;6.054;2023-04-08T01:12:55;21.00;;;6.90;;
65879;SDS011;52661;51.364;6.054;2023-04-08T01:15:23;18.63;;;7.00;;
65879;SDS011;52661;51.364;6.054;2023-04-08T01:17:52;17.83;;;6.55;;
65879;SDS011;52661;51.364;6.054;2023-04-08T01:20:19;20.50;;;7.53;;
65879;SDS011;52661;51.364;6.054;2023-04-08T01:25:29;15.90;;;6.82;;
65879;SDS011;52661;51.364;6.054;2023-04-08T01:27:57;16.75;;;6.53;;
65879;SDS011;52661;51.364;6.054;2023-04-08T01:30:24;15.57;;;6.90;;
65879;SDS011;52661;51.364;6.054;2023-04-08T01:32:52;15.82;;;7.50;;
65879;SDS011;52661;51.364;6.054;2023-04-08T01:35:19;18.83;;;8.52;;
65879;SDS011;52661;51.364;6.054;2023-04-08T01:37:45;20.60;;;7.15;;
65879;SDS011;52661;51.364;6.054;2023-04-08T01:40:13;16.15;;;7.25;;
65879;SDS011;52661;51.364;6.054;2023-04-08T01:42:39;19.45;;;7.32;;
65879;SDS011;52661;51.364;6.054;2023-04-08T01:45:06;18.70;;;6.70;;
65879;SDS011;52661;51.364;6.054;2023-04-08T01:47:33;20.10;;;6.60;;
65879;SDS011;52661;51.364;6.054;2023-04-08T01:50:00;17.95;;;7.40;;
65879;SDS011;52661;51.364;6.054;2023-04-08T01:52:27;18.73;;;7.45;;
65879;SDS011;52661;51.364;6.054;2023-04-08T01:54:54;20.45;;;7.53;;
65879;SDS011;52661;51.364;6.054;2023-04-08T01:57:23;16.70;;;6.68;;
65879;SDS011;52661;51.364;6.054;2023-04-08T01:59:51;19.38;;;8.15;;
65879;SDS011;52661;51.364;6.054;2023-04-08T02:02:20;19.58;;;8.70;;
65879;SDS011;52661;51.364;6.054;2023-04-08T02:07:13;17.17;;;7.80;;
65879;SDS011;52661;51.364;6.054;2023-04-08T02:09:39;24.75;;;8.20;;
65879;SDS011;52661;51.364;6.054;2023-04-08T02:12:05;19.95;;;7.60;;
65879;SDS011;52661;51.364;6.054;2023-04-08T02:14:31;20.42;;;8.98;;
65879;SDS011;52661;51.364;6.054;2023-04-08T02:19:28;20.33;;;8.32;;
65879;SDS011;52661;51.364;6.054;2023-04-08T02:22:04;23.95;;;9.73;;
65879;SDS011;52661;51.364;6.054;2023-04-08T02:24:33;21.55;;;8.27;;
65879;SDS011;52661;51.364;6.054;2023-04-08T02:27:02;21.95;;;10.10;;
65879;SDS011;52661;51.364;6.054;2023-04-08T02:29:29;26.83;;;8.27;;
65879;SDS011;52661;51.364;6.054;2023-04-08T02:31:56;22.17;;;8.52;;
65879;SDS011;52661;51.364;6.054;2023-04-08T02:34:22;22.95;;;7.90;;
65879;SDS011;52661;51.364;6.054;2023-04-08T02:36:49;27.73;;;8.85;;
65879;SDS011;52661;51.364;6.054;2023-04-08T02:39:15;26.48;;;10.43;;
65879;SDS011;52661;51.364;6.054;2023-04-08T02:41:41;26.58;;;9.30;;
65879;SDS011;52661;51.364;6.054;2023-04-08T02:44:06;27.80;;;9.17;;
65879;SDS011;52661;51.364;6.054;2023-04-08T02:46:31;24.83;;;8.75;;
65879;SDS011;52661;51.364;6.054;2023-04-08T02:48:57;25.10;;;10.52;;
65879;SDS011;52661;51.364;6.054;2023-04-08T02:51:22;28.70;;;9.17;;
65879;SDS011;52661;51.364;6.054;2023-04-08T02:53:47;31.33;;;8.93;;
65879;SDS011;52661;51.364;6.054;2023-04-08T02:56:13;29.73;;;10.52;;
65879;SDS011;52661;51.364;6.054;2023-04-08T02:58:38;25.30;;;9.83;;
65879;SDS011;52661;51.364;6.054;2023-04-08T03:01:03;27.08;;;9.05;;
65879;SDS011;52661;51.364;6.054;2023-04-08T03:03:29;29.70;;;9.18;;
65879;SDS011;52661;51.364;6.054;2023-04-08T03:05:55;28.40;;;9.82;;
65879;SDS011;52661;51.364;6.054;2023-04-08T03:08:23;25.52;;;9.88;;
65879;SDS011;52661;51.364;6.054;2023-04-08T03:10:49;27.10;;;9.88;;
65879;SDS011;52661;51.364;6.054;2023-04-08T03:13:14;39.05;;;11.45;;
65879;SDS011;52661;51.364;6.054;2023-04-08T03:15:40;24.02;;;9.02;;
65879;SDS011;52661;51.364;6.054;2023-04-08T03:18:05;37.42;;;11.65;;
65879;SDS011;52661;51.364;6.054;2023-04-08T03:20:31;29.95;;;9.13;;
65879;SDS011;52661;51.364;6.054;2023-04-08T03:22:56;30.58;;;9.85;;
65879;SDS011;52661;51.364;6.054;2023-04-08T03:25:22;37.60;;;9.83;;
65879;SDS011;52661;51.364;6.054;2023-04-08T03:27:47;30.77;;;9.43;;
65879;SDS011;52661;51.364;6.054;2023-04-08T03:30:12;33.50;;;10.40;;
65879;SDS011;52661;51.364;6.054;2023-04-08T03:32:37;27.60;;;9.13;;
65879;SDS011;52661;51.364;6.054;2023-04-08T03:35:03;35.40;;;10.17;;
65879;SDS011;52661;51.364;6.054;2023-04-08T03:37:30;27.63;;;10.40;;
65879;SDS011;52661;51.364;6.054;2023-04-08T03:39:55;31.48;;;10.60;;
65879;SDS011;52661;51.364;6.054;2023-04-08T03:42:20;32.23;;;9.97;;
65879;SDS011;52661;51.364;6.054;2023-04-08T03:44:46;34.13;;;10.57;;
65879;SDS011;52661;51.364;6.054;2023-04-08T03:47:11;27.27;;;9.23;;
65879;SDS011;52661;51.364;6.054;2023-04-08T03:49:37;32.40;;;10.13;;
65879;SDS011;52661;51.364;6.054;2023-04-08T03:52:02;33.30;;;11.03;;
65879;SDS011;52661;51.364;6.054;2023-04-08T03:54:27;28.58;;;9.07;;
65879;SDS011;52661;51.364;6.054;2023-04-08T03:56:53;28.25;;;10.13;;
65879;SDS011;52661;51.364;6.054;2023-04-08T03:59:18;33.90;;;10.80;;
65879;SDS011;52661;51.364;6.054;2023-04-08T04:01:43;29.43;;;9.93;;
65879;SDS011;52661;51.364;6.054;2023-04-08T04:04:08;26.27;;;10.30;;
65879;SDS011;52661;51.364;6.054;2023-04-08T04:06:34;31.35;;;10.50;;
65879;SDS011;52661;51.364;6.054;2023-04-08T04:08:59;30.02;;;10.90;;
65879;SDS011;52661;51.364;6.054;2023-04-08T04:11:25;27.37;;;9.77;;
65879;SDS011;52661;51.364;6.054;2023-04-08T04:13:51;28.55;;;12.18;;
65879;SDS011;52661;51.364;6.054;2023-04-08T04:16:16;26.92;;;9.80;;
65879;SDS011;52661;51.364;6.054;2023-04-08T04:18:41;33.53;;;10.93;;
65879;SDS011;52661;51.364;6.054;2023-04-08T04:21:07;32.77;;;10.17;;
65879;SDS011;52661;51.364;6.054;2023-04-08T04:23:32;27.90;;;9.82;;
65879;SDS011;52661;51.364;6.054;2023-04-08T04:25:58;31.08;;;9.93;;
65879;SDS011;52661;51.364;6.054;2023-04-08T04:28:23;31.17;;;10.13;;
65879;SDS011;52661;51.364;6.054;2023-04-08T04:30:49;31.45;;;10.80;;
65879;SDS011;52661;51.364;6.054;2023-04-08T04:33:14;25.52;;;9.23;;
65879;SDS011;52661;51.364;6.054;2023-04-08T04:35:39;32.08;;;10.10;;
65879;SDS011;52661;51.364;6.054;2023-04-08T04:38:05;27.70;;;9.53;;
65879;SDS011;52661;51.364;6.054;2023-04-08T04:40:35;28.50;;;10.57;;
65879;SDS011;52661;51.364;6.054;2023-04-08T04:43:00;32.83;;;10.82;;
65879;SDS011;52661;51.364;6.054;2023-04-08T04:45:26;23.93;;;9.07;;
65879;SDS011;52661;51.364;6.054;2023-04-08T04:47:51;29.02;;;12.15;;
65879;SDS011;52661;51.364;6.054;2023-04-08T04:50:16;30.73;;;10.10;;
65879;SDS011;52661;51.364;6.054;2023-04-08T04:52:42;34.95;;;9.40;;
65879;SDS011;52661;51.364;6.054;2023-04-08T04:55:07;25.95;;;10.07;;
65879;SDS011;52661;51.364;6.054;2023-04-08T04:57:33;25.38;;;10.25;;
65879;SDS011;52661;51.364;6.054;2023-04-08T04:59:58;29.10;;;9.47;;
65879;SDS011;52661;51.364;6.054;2023-04-08T05:02:24;27.13;;;8.90;;
65879;SDS011;52661;51.364;6.054;2023-04-08T05:04:49;26.60;;;9.67;;
65879;SDS011;52661;51.364;6.054;2023-04-08T05:07:17;24.50;;;8.82;;
65879;SDS011;52661;51.364;6.054;2023-04-08T05:09:42;30.65;;;10.45;;
65879;SDS011;52661;51.364;6.054;2023-04-08T05:12:08;28.23;;;9.50;;
65879;SDS011;52661;51.364;6.054;2023-04-08T05:14:33;30.05;;;10.93;;
65879;SDS011;52661;51.364;6.054;2023-04-08T05:16:58;28.93;;;10.00;;
65879;SDS011;52661;51.364;6.054;2023-04-08T05:19:23;30.87;;;10.90;;
65879;SDS011;52661;51.364;6.054;2023-04-08T05:21:49;27.45;;;10.43;;
65879;SDS011;52661;51.364;6.054;2023-04-08T05:24:14;31.27;;;10.60;;
65879;SDS011;52661;51.364;6.054;2023-04-08T05:26:40;26.30;;;10.23;;
65879;SDS011;52661;51.364;6.054;2023-04-08T05:29:05;28.23;;;10.35;;
65879;SDS011;52661;51.364;6.054;2023-04-08T05:31:30;26.33;;;10.20;;
65879;SDS011;52661;51.364;6.054;2023-04-08T05:33:56;28.15;;;9.30;;
65879;SDS011;52661;51.364;6.054;2023-04-08T05:36:21;29.35;;;11.85;;
65879;SDS011;52661;51.364;6.054;2023-04-08T05:38:46;29.00;;;10.03;;
65879;SDS011;52661;51.364;6.054;2023-04-08T05:41:12;25.95;;;10.23;;
65879;SDS011;52661;51.364;6.054;2023-04-08T05:43:38;27.07;;;9.60;;
65879;SDS011;52661;51.364;6.054;2023-04-08T05:46:06;26.47;;;10.23;;
65879;SDS011;52661;51.364;6.054;2023-04-08T05:48:32;31.48;;;11.98;;
65879;SDS011;52661;51.364;6.054;2023-04-08T05:50:58;32.87;;;9.90;;
65879;SDS011;52661;51.364;6.054;2023-04-08T05:53:23;28.03;;;10.43;;
65879;SDS011;52661;51.364;6.054;2023-04-08T05:55:49;29.00;;;11.10;;
65879;SDS011;52661;51.364;6.054;2023-04-08T05:58:14;30.92;;;10.73;;
65879;SDS011;52661;51.364;6.054;2023-04-08T06:00:40;34.47;;;11.10;;
65879;SDS011;52661;51.364;6.054;2023-04-08T06:03:05;31.67;;;10.77;;
65879;SDS011;52661;51.364;6.054;2023-04-08T06:05:30;29.67;;;10.27;;
65879;SDS011;52661;51.364;6.054;2023-04-08T06:07:56;33.10;;;11.60;;
65879;SDS011;52661;51.364;6.054;2023-04-08T06:10:21;33.03;;;11.40;;
65879;SDS011;52661;51.364;6.054;2023-04-08T06:12:47;37.47;;;12.30;;
65879;SDS011;52661;51.364;6.054;2023-04-08T06:15:12;28.77;;;10.70;;
65879;SDS011;52661;51.364;6.054;2023-04-08T06:17:37;27.90;;;11.85;;
65879;SDS011;52661;51.364;6.054;2023-04-08T06:20:04;30.58;;;12.30;;
65879;SDS011;52661;51.364;6.054;2023-04-08T06:22:30;35.28;;;12.02;;
65879;SDS011;52661;51.364;6.054;2023-04-08T06:24:56;35.03;;;12.43;;
65879;SDS011;52661;51.364;6.054;2023-04-08T06:27:21;39.90;;;12.57;;
65879;SDS011;52661;51.364;6.054;2023-04-08T06:29:46;36.10;;;12.38;;
65879;SDS011;52661;51.364;6.054;2023-04-08T06:32:12;34.30;;;12.33;;
65879;SDS011;52661;51.364;6.054;2023-04-08T06:34:38;33.70;;;12.43;;
65879;SDS011;52661;51.364;6.054;2023-04-08T06:37:03;35.22;;;11.82;;
65879;SDS011;52661;51.364;6.054;2023-04-08T06:39:30;35.88;;;13.18;;
65879;SDS011;52661;51.364;6.054;2023-04-08T06:41:55;37.45;;;12.70;;
65879;SDS011;52661;51.364;6.054;2023-04-08T06:44:22;33.70;;;12.68;;
65879;SDS011;52661;51.364;6.054;2023-04-08T06:46:47;35.78;;;14.75;;
65879;SDS011;52661;51.364;6.054;2023-04-08T06:49:12;39.80;;;13.33;;
65879;SDS011;52661;51.364;6.054;2023-04-08T06:51:38;35.27;;;12.73;;
65879;SDS011;52661;51.364;6.054;2023-04-08T06:54:03;36.33;;;12.70;;
65879;SDS011;52661;51.364;6.054;2023-04-08T06:56:28;39.20;;;14.32;;
65879;SDS011;52661;51.364;6.054;2023-04-08T06:58:53;36.23;;;13.20;;
65879;SDS011;52661;51.364;6.054;2023-04-08T07:01:19;34.03;;;11.70;;
65879;SDS011;52661;51.364;6.054;2023-04-08T07:03:44;37.20;;;12.65;;
65879;SDS011;52661;51.364;6.054;2023-04-08T07:06:10;40.95;;;12.10;;
65879;SDS011;52661;51.364;6.054;2023-04-08T07:08:35;42.22;;;13.48;;
65879;SDS011;52661;51.364;6.054;2023-04-08T07:11:01;34.63;;;12.75;;
65879;SDS011;52661;51.364;6.054;2023-04-08T07:13:27;40.25;;;14.07;;
65879;SDS011;52661;51.364;6.054;2023-04-08T07:15:53;34.60;;;12.65;;
65879;SDS011;52661;51.364;6.054;2023-04-08T07:18:18;48.30;;;14.07;;
65879;SDS011;52661;51.364;6.054;2023-04-08T07:20:49;43.97;;;15.27;;
65879;SDS011;52661;51.364;6.054;2023-04-08T07:23:15;46.95;;;18.38;;
65879;SDS011;52661;51.364;6.054;2023-04-08T07:25:40;45.60;;;15.30;;
65879;SDS011;52661;51.364;6.054;2023-04-08T07:28:05;39.30;;;13.90;;
65879;SDS011;52661;51.364;6.054;2023-04-08T07:30:31;42.17;;;12.50;;
65879;SDS011;52661;51.364;6.054;2023-04-08T07:32:56;42.50;;;14.07;;
65879;SDS011;52661;51.364;6.054;2023-04-08T07:35:22;43.40;;;16.67;;
65879;SDS011;52661;51.364;6.054;2023-04-08T07:37:48;41.78;;;13.48;;
65879;SDS011;52661;51.364;6.054;2023-04-08T07:40:15;45.38;;;15.98;;
65879;SDS011;52661;51.364;6.054;2023-04-08T07:42:41;44.83;;;14.85;;
65879;SDS011;52661;51.364;6.054;2023-04-08T07:45:06;39.67;;;12.70;;
65879;SDS011;52661;51.364;6.054;2023-04-08T07:47:32;40.70;;;14.23;;
65879;SDS011;52661;51.364;6.054;2023-04-08T07:49:57;41.10;;;14.33;;
65879;SDS011;52661;51.364;6.054;2023-04-08T07:52:22;41.60;;;14.47;;
65879;SDS011;52661;51.364;6.054;2023-04-08T07:54:48;40.97;;;15.38;;
65879;SDS011;52661;51.364;6.054;2023-04-08T07:57:13;39.73;;;13.43;;
65879;SDS011;52661;51.364;6.054;2023-04-08T07:59:38;35.15;;;12.15;;
65879;SDS011;52661;51.364;6.054;2023-04-08T08:02:04;35.55;;;12.45;;
65879;SDS011;52661;51.364;6.054;2023-04-08T08:04:30;33.92;;;12.98;;
65879;SDS011;52661;51.364;6.054;2023-04-08T08:06:55;31.65;;;11.27;;
65879;SDS011;52661;51.364;6.054;2023-04-08T08:09:20;33.95;;;12.65;;
65879;SDS011;52661;51.364;6.054;2023-04-08T08:11:46;33.25;;;12.90;;
65879;SDS011;52661;51.364;6.054;2023-04-08T08:14:11;28.97;;;11.57;;
65879;SDS011;52661;51.364;6.054;2023-04-08T08:16:38;29.27;;;11.90;;
65879;SDS011;52661;51.364;6.054;2023-04-08T08:19:03;31.83;;;12.40;;
65879;SDS011;52661;51.364;6.054;2023-04-08T08:21:31;27.17;;;11.43;;
65879;SDS011;52661;51.364;6.054;2023-04-08T08:23:57;28.33;;;12.65;;
65879;SDS011;52661;51.364;6.054;2023-04-08T08:26:23;28.15;;;11.73;;
65879;SDS011;52661;51.364;6.054;2023-04-08T08:28:49;24.73;;;10.15;;
65879;SDS011;52661;51.364;6.054;2023-04-08T08:31:14;22.25;;;9.45;;
65879;SDS011;52661;51.364;6.054;2023-04-08T08:33:40;24.90;;;10.87;;
65879;SDS011;52661;51.364;6.054;2023-04-08T08:36:05;22.03;;;10.73;;
65879;SDS011;52661;51.364;6.054;2023-04-08T08:38:31;28.52;;;9.18;;
65879;SDS011;52661;51.364;6.054;2023-04-08T08:40:57;25.30;;;10.70;;
65879;SDS011;52661;51.364;6.054;2023-04-08T08:43:26;22.25;;;9.38;;
65879;SDS011;52661;51.364;6.054;2023-04-08T08:45:52;23.15;;;9.32;;
65879;SDS011;52661;51.364;6.054;2023-04-08T08:48:18;21.38;;;9.10;;
65879;SDS011;52661;51.364;6.054;2023-04-08T08:50:44;27.52;;;9.95;;
65879;SDS011;52661;51.364;6.054;2023-04-08T08:53:09;18.50;;;8.70;;
65879;SDS011;52661;51.364;6.054;2023-04-08T08:55:35;22.30;;;9.90;;
65879;SDS011;52661;51.364;6.054;2023-04-08T08:58:02;24.85;;;9.63;;
65879;SDS011;52661;51.364;6.054;2023-04-08T09:00:41;20.77;;;9.02;;
65879;SDS011;52661;51.364;6.054;2023-04-08T09:03:15;26.73;;;11.18;;
65879;SDS011;52661;51.364;6.054;2023-04-08T09:05:49;18.77;;;8.25;;
65879;SDS011;52661;51.364;6.054;2023-04-08T09:08:29;21.15;;;10.68;;
65879;SDS011;52661;51.364;6.054;2023-04-08T09:11:09;22.90;;;8.95;;
65879;SDS011;52661;51.364;6.054;2023-04-08T09:13:37;18.65;;;8.57;;
65879;SDS011;52661;51.364;6.054;2023-04-08T09:16:04;23.25;;;8.63;;
65879;SDS011;52661;51.364;6.054;2023-04-08T09:18:32;25.08;;;10.10;;
65879;SDS011;52661;51.364;6.054;2023-04-08T09:20:58;22.27;;;9.65;;
65879;SDS011;52661;51.364;6.054;2023-04-08T09:23:31;26.17;;;10.82;;
65879;SDS011;52661;51.364;6.054;2023-04-08T09:26:22;26.35;;;10.40;;
65879;SDS011;52661;51.364;6.054;2023-04-08T09:29:01;25.50;;;10.27;;
65879;SDS011;52661;51.364;6.054;2023-04-08T09:31:28;24.55;;;10.35;;
65879;SDS011;52661;51.364;6.054;2023-04-08T09:34:00;22.35;;;9.82;;
65879;SDS011;52661;51.364;6.054;2023-04-08T09:36:34;25.65;;;10.27;;
65879;SDS011;52661;51.364;6.054;2023-04-08T09:38:59;24.20;;;9.50;;
65879;SDS011;52661;51.364;6.054;2023-04-08T09:41:25;24.17;;;10.70;;
65879;SDS011;52661;51.364;6.054;2023-04-08T09:43:53;24.58;;;10.48;;
65879;SDS011;52661;51.364;6.054;2023-04-08T09:46:54;25.60;;;11.32;;
65879;SDS011;52661;51.364;6.054;2023-04-08T09:49:54;26.15;;;10.13;;
65879;SDS011;52661;51.364;6.054;2023-04-08T09:55:07;21.80;;;10.45;;
65879;SDS011;52661;51.364;6.054;2023-04-08T10:02:35;23.35;;;10.07;;
65879;SDS011;52661;51.364;6.054;2023-04-08T10:05:09;24.35;;;9.85;;
65879;SDS011;52661;51.364;6.054;2023-04-08T10:07:37;24.60;;;11.75;;
65879;SDS011;52661;51.364;6.054;2023-04-08T10:10:03;26.70;;;10.65;;
65879;SDS011;52661;51.364;6.054;2023-04-08T10:12:29;22.73;;;10.27;;
65879;SDS011;52661;51.364;6.054;2023-04-08T10:15:20;23.90;;;9.98;;
65879;SDS011;52661;51.364;6.054;2023-04-08T10:17:46;26.40;;;9.65;;
65879;SDS011;52661;51.364;6.054;2023-04-08T10:22:58;22.92;;;10.90;;
65879;SDS011;52661;51.364;6.054;2023-04-08T10:25:30;24.02;;;11.50;;
65879;SDS011;52661;51.364;6.054;2023-04-08T10:27:57;25.02;;;10.93;;
65879;SDS011;52661;51.364;6.054;2023-04-08T10:32:52;23.30;;;11.43;;
65879;SDS011;52661;51.364;6.054;2023-04-08T10:38:01;21.42;;;11.57;;
65879;SDS011;52661;51.364;6.054;2023-04-08T10:40:27;24.05;;;9.80;;
65879;SDS011;52661;51.364;6.054;2023-04-08T10:42:56;24.15;;;10.35;;
65879;SDS011;52661;51.364;6.054;2023-04-08T10:45:22;25.42;;;10.98;;
65879;SDS011;52661;51.364;6.054;2023-04-08T10:47:48;25.40;;;11.13;;
65879;SDS011;52661;51.364;6.054;2023-04-08T10:50:15;25.15;;;10.98;;
65879;SDS011;52661;51.364;6.054;2023-04-08T10:52:45;25.30;;;11.05;;
65879;SDS011;52661;51.364;6.054;2023-04-08T10:55:11;21.83;;;9.10;;
65879;SDS011;52661;51.364;6.054;2023-04-08T10:57:36;26.48;;;11.85;;
65879;SDS011;52661;51.364;6.054;2023-04-08T11:02:33;24.83;;;10.75;;
65879;SDS011;52661;51.364;6.054;2023-04-08T11:05:01;28.10;;;11.95;;
65879;SDS011;52661;51.364;6.054;2023-04-08T11:07:27;25.77;;;11.38;;
65879;SDS011;52661;51.364;6.054;2023-04-08T11:09:52;26.30;;;10.85;;
65879;SDS011;52661;51.364;6.054;2023-04-08T11:12:19;24.75;;;12.45;;
65879;SDS011;52661;51.364;6.054;2023-04-08T11:14:45;29.55;;;12.35;;
65879;SDS011;52661;51.364;6.054;2023-04-08T11:17:11;25.25;;;12.57;;
65879;SDS011;52661;51.364;6.054;2023-04-08T11:19:39;25.90;;;12.02;;
65879;SDS011;52661;51.364;6.054;2023-04-08T11:22:05;25.98;;;11.60;;
65879;SDS011;52661;51.364;6.054;2023-04-08T11:24:33;27.63;;;12.15;;
65879;SDS011;52661;51.364;6.054;2023-04-08T11:27:01;25.20;;;12.77;;
65879;SDS011;52661;51.364;6.054;2023-04-08T11:29:28;25.20;;;11.25;;
65879;SDS011;52661;51.364;6.054;2023-04-08T11:31:54;25.60;;;11.90;;
65879;SDS011;52661;51.364;6.054;2023-04-08T11:34:21;20.83;;;10.02;;
65879;SDS011;52661;51.364;6.054;2023-04-08T11:36:47;19.65;;;8.15;;
65879;SDS011;52661;51.364;6.054;2023-04-08T11:39:12;20.50;;;9.63;;
65879;SDS011;52661;51.364;6.054;2023-04-08T11:41:38;18.87;;;8.47;;
65879;SDS011;52661;51.364;6.054;2023-04-08T11:44:04;18.85;;;8.95;;
65879;SDS011;52661;51.364;6.054;2023-04-08T11:46:31;21.00;;;9.88;;
65879;SDS011;52661;51.364;6.054;2023-04-08T11:48:57;16.98;;;9.00;;
65879;SDS011;52661;51.364;6.054;2023-04-08T11:51:33;18.13;;;8.13;;
65879;SDS011;52661;51.364;6.054;2023-04-08T11:54:03;15.75;;;8.55;;
65879;SDS011;52661;51.364;6.054;2023-04-08T11:56:30;15.80;;;8.95;;
65879;SDS011;52661;51.364;6.054;2023-04-08T11:58:57;13.70;;;5.93;;
65879;SDS011;52661;51.364;6.054;2023-04-08T12:01:22;17.17;;;8.10;;
65879;SDS011;52661;51.364;6.054;2023-04-08T12:03:57;16.75;;;8.90;;
65879;SDS011;52661;51.364;6.054;2023-04-08T12:06:24;17.67;;;9.73;;
65879;SDS011;52661;51.364;6.054;2023-04-08T12:08:51;14.93;;;8.32;;
65879;SDS011;52661;51.364;6.054;2023-04-08T12:11:17;16.77;;;8.43;;
65879;SDS011;52661;51.364;6.054;2023-04-08T12:13:42;19.52;;;8.05;;
65879;SDS011;52661;51.364;6.054;2023-04-08T12:16:07;15.90;;;7.75;;
65879;SDS011;52661;51.364;6.054;2023-04-08T12:18:33;17.23;;;8.60;;
65879;SDS011;52661;51.364;6.054;2023-04-08T12:20:58;17.67;;;8.73;;
65879;SDS011;52661;51.364;6.054;2023-04-08T12:23:23;18.63;;;9.57;;
65879;SDS011;52661;51.364;6.054;2023-04-08T12:25:57;18.63;;;8.60;;
65879;SDS011;52661;51.364;6.054;2023-04-08T12:28:23;19.10;;;9.85;;
65879;SDS011;52661;51.364;6.054;2023-04-08T12:30:48;21.07;;;11.50;;
65879;SDS011;52661;51.364;6.054;2023-04-08T12:33:13;19.67;;;10.30;;
65879;SDS011;52661;51.364;6.054;2023-04-08T12:35:39;17.27;;;9.02;;
65879;SDS011;52661;51.364;6.054;2023-04-08T12:38:05;16.20;;;9.25;;
65879;SDS011;52661;51.364;6.054;2023-04-08T12:40:30;18.48;;;8.90;;
65879;SDS011;52661;51.364;6.054;2023-04-08T12:42:56;16.23;;;9.03;;
65879;SDS011;52661;51.364;6.054;2023-04-08T12:45:21;19.52;;;9.50;;
65879;SDS011;52661;51.364;6.054;2023-04-08T12:47:46;20.45;;;9.18;;
65879;SDS011;52661;51.364;6.054;2023-04-08T12:50:12;17.80;;;9.70;;
65879;SDS011;52661;51.364;6.054;2023-04-08T12:52:37;17.40;;;8.25;;
65879;SDS011;52661;51.364;6.054;2023-04-08T12:55:03;20.90;;;9.23;;
65879;SDS011;52661;51.364;6.054;2023-04-08T12:57:29;15.77;;;8.70;;
65879;SDS011;52661;51.364;6.054;2023-04-08T12:59:55;17.13;;;9.15;;
65879;SDS011;52661;51.364;6.054;2023-04-08T13:02:21;18.93;;;10.47;;
65879;SDS011;52661;51.364;6.054;2023-04-08T13:04:46;17.03;;;9.17;;
65879;SDS011;52661;51.364;6.054;2023-04-08T13:07:13;16.08;;;8.20;;
65879;SDS011;52661;51.364;6.054;2023-04-08T13:09:39;13.30;;;7.70;;
65879;SDS011;52661;51.364;6.054;2023-04-08T13:12:04;11.47;;;5.80;;
65879;SDS011;52661;51.364;6.054;2023-04-08T13:14:29;10.47;;;5.97;;
65879;SDS011;52661;51.364;6.054;2023-04-08T13:16:55;10.63;;;5.57;;
65879;SDS011;52661;51.364;6.054;2023-04-08T13:19:20;10.63;;;6.07;;
65879;SDS011;52661;51.364;6.054;2023-04-08T13:21:46;9.32;;;5.28;;
65879;SDS011;52661;51.364;6.054;2023-04-08T13:24:11;11.23;;;5.13;;
65879;SDS011;52661;51.364;6.054;2023-04-08T13:26:36;10.00;;;5.18;;
65879;SDS011;52661;51.364;6.054;2023-04-08T13:29:02;12.00;;;5.37;;
65879;SDS011;52661;51.364;6.054;2023-04-08T13:31:27;11.33;;;6.00;;
65879;SDS011;52661;51.364;6.054;2023-04-08T13:33:52;8.17;;;4.57;;
65879;SDS011;52661;51.364;6.054;2023-04-08T13:36:18;8.43;;;4.57;;
65879;SDS011;52661;51.364;6.054;2023-04-08T13:38:43;10.73;;;4.80;;
65879;SDS011;52661;51.364;6.054;2023-04-08T13:41:10;8.35;;;4.80;;
65879;SDS011;52661;51.364;6.054;2023-04-08T13:43:35;8.60;;;4.28;;
65879;SDS011;52661;51.364;6.054;2023-04-08T13:46:00;11.03;;;5.40;;
65879;SDS011;52661;51.364;6.054;2023-04-08T13:48:26;11.00;;;5.63;;
65879;SDS011;52661;51.364;6.054;2023-04-08T13:50:51;10.80;;;5.15;;
65879;SDS011;52661;51.364;6.054;2023-04-08T13:53:16;10.93;;;5.13;;
65879;SDS011;52661;51.364;6.054;2023-04-08T13:55:42;11.32;;;5.82;;
65879;SDS011;52661;51.364;6.054;2023-04-08T13:58:07;8.83;;;4.93;;
65879;SDS011;52661;51.364;6.054;2023-04-08T14:00:32;10.30;;;5.25;;
65879;SDS011;52661;51.364;6.054;2023-04-08T14:02:58;9.73;;;4.77;;
65879;SDS011;52661;51.364;6.054;2023-04-08T14:05:23;10.03;;;5.40;;
65879;SDS011;52661;51.364;6.054;2023-04-08T14:07:48;10.02;;;5.60;;
65879;SDS011;52661;51.364;6.054;2023-04-08T14:10:14;11.07;;;6.20;;
65879;SDS011;52661;51.364;6.054;2023-04-08T14:12:41;8.30;;;4.43;;
65879;SDS011;52661;51.364;6.054;2023-04-08T14:15:06;10.82;;;5.00;;
65879;SDS011;52661;51.364;6.054;2023-04-08T14:17:32;11.70;;;4.78;;
65879;SDS011;52661;51.364;6.054;2023-04-08T14:20:00;9.05;;;4.85;;
65879;SDS011;52661;51.364;6.054;2023-04-08T14:22:25;8.40;;;4.57;;
65879;SDS011;52661;51.364;6.054;2023-04-08T14:24:50;8.13;;;3.80;;
65879;SDS011;52661;51.364;6.054;2023-04-08T14:27:16;10.00;;;4.73;;
65879;SDS011;52661;51.364;6.054;2023-04-08T14:29:41;8.63;;;4.27;;
65879;SDS011;52661;51.364;6.054;2023-04-08T14:32:06;9.57;;;4.97;;
65879;SDS011;52661;51.364;6.054;2023-04-08T14:34:32;8.65;;;4.55;;
65879;SDS011;52661;51.364;6.054;2023-04-08T14:36:58;8.13;;;4.45;;
65879;SDS011;52661;51.364;6.054;2023-04-08T14:39:23;7.55;;;4.50;;
65879;SDS011;52661;51.364;6.054;2023-04-08T14:41:49;10.75;;;4.22;;
65879;SDS011;52661;51.364;6.054;2023-04-08T14:44:14;7.35;;;4.05;;
65879;SDS011;52661;51.364;6.054;2023-04-08T14:46:39;7.15;;;4.15;;
65879;SDS011;52661;51.364;6.054;2023-04-08T14:49:05;8.30;;;4.72;;
65879;SDS011;52661;51.364;6.054;2023-04-08T14:51:31;7.97;;;4.55;;
65879;SDS011;52661;51.364;6.054;2023-04-08T14:53:57;10.02;;;5.15;;
65879;SDS011;52661;51.364;6.054;2023-04-08T14:56:22;9.60;;;4.03;;